createdAt,value
2023-04-15T00:01:20.110Z,6.78
2023-04-15T00:03:49.332Z,5.03
2023-04-15T00:06:21.383Z,10.88
2023-04-15T00:08:51.498Z,20.40
2023-04-15T00:11:20.839Z,15.15
2023-04-15T00:13:50.140Z,11.48
2023-04-15T00:16:19.048Z,50.08
2023-04-15T00:18:47.720Z,10.93
2023-04-15T00:21:16.820Z,3.45
2023-04-15T00:23:45.862Z,3.22
2023-04-15T00:26:14.999Z,4.45
2023-04-15T00:28:45.338Z,4.45
2023-04-15T00:31:14.067Z,7.78
2023-04-15T00:33:43.021Z,3.78
2023-04-15T00:36:12.060Z,4.85
2023-04-15T00:38:40.705Z,3.28
2023-04-15T00:41:11.242Z,3.30
2023-04-15T00:43:39.996Z,3.47
2023-04-15T00:46:10.283Z,3.42
2023-04-15T00:48:39.719Z,5.05
2023-04-15T00:51:08.488Z,3.80
2023-04-15T00:53:37.118Z,3.47
2023-04-15T00:56:06.963Z,5.50
2023-04-15T00:58:35.800Z,6.53
2023-04-15T01:01:05.315Z,5.43
2023-04-15T01:03:34.624Z,6.90
2023-04-15T01:06:04.663Z,5.03
2023-04-15T01:08:33.921Z,3.60
2023-04-15T01:11:06.480Z,11.50
2023-04-15T01:13:38.677Z,6.53
2023-04-15T01:16:09.612Z,8.27
2023-04-15T01:18:39.386Z,7.93
2023-04-15T01:21:08.684Z,7.05
2023-04-15T01:23:40.497Z,10.57
2023-04-15T01:26:12.828Z,5.70
2023-04-15T01:28:41.517Z,9.45
2023-04-15T01:31:15.376Z,4.20
2023-04-15T01:33:44.594Z,7.03
2023-04-15T01:36:16.106Z,6.80
2023-04-15T01:38:44.904Z,6.95
2023-04-15T01:41:17.324Z,5.95
2023-04-15T01:43:46.423Z,9.70
2023-04-15T01:46:15.316Z,4.82
2023-04-15T01:48:46.905Z,6.72
2023-04-15T01:51:15.622Z,3.88
2023-04-15T01:53:44.223Z,5.10
2023-04-15T01:56:15.293Z,3.63
2023-04-15T01:58:45.629Z,3.88
2023-04-15T02:01:14.438Z,5.97
2023-04-15T02:03:43.478Z,10.15
2023-04-15T02:06:12.272Z,8.68
2023-04-15T02:08:41.955Z,4.22
2023-04-15T02:11:11.018Z,3.15
2023-04-15T02:13:40.295Z,3.70
2023-04-15T02:16:20.378Z,2.22
2023-04-15T02:18:49.170Z,7.75
2023-04-15T02:21:17.826Z,9.68
2023-04-15T02:23:48.901Z,8.68
2023-04-15T02:26:18.267Z,5.03
2023-04-15T02:28:49.013Z,3.65
2023-04-15T02:31:18.556Z,3.28
2023-04-15T02:33:47.327Z,5.03
2023-04-15T02:36:16.478Z,9.13
2023-04-15T02:38:45.708Z,7.68
2023-04-15T02:41:16.164Z,9.90
2023-04-15T02:43:47.006Z,15.52
2023-04-15T02:46:19.707Z,14.50
2023-04-15T02:48:50.557Z,16.60
2023-04-15T02:51:24.722Z,8.13
2023-04-15T02:53:54.689Z,7.88
2023-04-15T02:56:24.346Z,30.92
2023-04-15T02:58:56.982Z,18.50
2023-04-15T03:01:25.612Z,10.70
2023-04-15T03:03:55.751Z,6.05
2023-04-15T03:06:25.394Z,10.02
2023-04-15T03:08:54.041Z,5.47
2023-04-15T03:11:23.909Z,5.40
2023-04-15T03:13:52.768Z,1.33
2023-04-15T03:16:33.266Z,4.88
2023-04-15T03:19:02.477Z,2.85
2023-04-15T03:21:32.264Z,2.22
2023-04-15T03:24:01.612Z,1.80
2023-04-15T03:26:32.304Z,3.10
2023-04-15T03:29:04.109Z,4.13
2023-04-15T03:31:35.467Z,2.55
2023-04-15T03:34:04.190Z,2.78
2023-04-15T03:36:35.505Z,4.88
2023-04-15T03:39:04.926Z,3.42
2023-04-15T03:41:33.772Z,5.60
2023-04-15T03:44:02.630Z,2.05
2023-04-15T03:46:31.484Z,2.58
2023-04-15T03:49:00.832Z,3.03
2023-04-15T03:51:29.927Z,3.25
2023-04-15T03:53:59.427Z,2.35
2023-04-15T03:56:28.207Z,3.85
2023-04-15T03:58:56.952Z,3.80
2023-04-15T04:01:25.779Z,4.63
2023-04-15T04:03:54.482Z,2.88
2023-04-15T04:06:23.462Z,8.25
2023-04-15T04:08:52.077Z,5.07
2023-04-15T04:11:21.740Z,14.43
2023-04-15T04:13:50.599Z,3.70
2023-04-15T04:16:19.255Z,3.15
2023-04-15T04:18:47.902Z,3.60
2023-04-15T04:21:17.028Z,2.92
2023-04-15T04:23:45.860Z,2.13
2023-04-15T04:26:14.592Z,3.75
2023-04-15T04:28:43.223Z,3.83
2023-04-15T04:31:12.064Z,3.58
2023-04-15T04:33:41.238Z,6.90
2023-04-15T04:36:09.662Z,6.00
2023-04-15T04:38:38.457Z,6.63
2023-04-15T04:41:07.088Z,15.70
2023-04-15T04:43:35.876Z,17.38
2023-04-15T04:46:04.486Z,6.85
2023-04-15T04:48:33.381Z,10.18
2023-04-15T04:51:02.246Z,9.38
2023-04-15T04:53:31.014Z,2.80
2023-04-15T04:55:59.559Z,4.13
2023-04-15T04:58:28.865Z,4.15
2023-04-15T05:00:58.268Z,3.33
2023-04-15T05:03:27.626Z,5.80
2023-04-15T05:05:56.708Z,4.63
2023-04-15T05:08:25.893Z,2.17
2023-04-15T05:10:55.015Z,3.70
2023-04-15T05:13:26.617Z,3.35
2023-04-15T05:15:55.415Z,5.25
2023-04-15T05:18:27.114Z,9.43
2023-04-15T05:20:55.788Z,3.47
2023-04-15T05:23:24.687Z,3.22
2023-04-15T05:25:53.331Z,3.47
2023-04-15T05:28:22.677Z,4.88
2023-04-15T05:30:52.317Z,2.60
2023-04-15T05:33:21.028Z,4.32
2023-04-15T05:35:50.549Z,4.85
2023-04-15T05:38:19.154Z,5.95
2023-04-15T05:40:48.363Z,8.77
2023-04-15T05:43:17.408Z,3.92
2023-04-15T05:45:46.759Z,7.43
2023-04-15T05:48:15.609Z,3.22
2023-04-15T05:50:44.449Z,2.55
2023-04-15T05:53:13.190Z,3.03
2023-04-15T05:55:41.997Z,2.65
2023-04-15T05:58:12.246Z,2.72
2023-04-15T06:00:41.912Z,2.42
2023-04-15T06:03:12.747Z,5.03
2023-04-15T06:05:41.410Z,3.10
2023-04-15T06:08:10.517Z,5.55
2023-04-15T06:10:39.449Z,7.32
2023-04-15T06:13:09.452Z,5.07
2023-04-15T06:15:38.540Z,7.20
2023-04-15T06:18:07.905Z,12.70
2023-04-15T06:20:37.305Z,6.95
2023-04-15T06:23:06.109Z,3.42
2023-04-15T06:25:35.349Z,4.45
2023-04-15T06:28:07.201Z,4.45
2023-04-15T06:30:37.503Z,5.30
2023-04-15T06:33:07.101Z,3.42
2023-04-15T06:35:36.268Z,4.63
2023-04-15T06:38:05.067Z,6.53
2023-04-15T06:40:34.470Z,3.05
2023-04-15T06:43:03.445Z,7.35
2023-04-15T06:45:34.518Z,8.40
2023-04-15T06:48:03.393Z,3.45
2023-04-15T06:50:32.285Z,3.00
2023-04-15T06:53:00.969Z,8.27
2023-04-15T06:55:29.686Z,6.85
2023-04-15T06:58:01.008Z,6.95
2023-04-15T07:00:30.061Z,7.25
2023-04-15T07:02:58.975Z,3.90
2023-04-15T07:05:28.602Z,6.32
2023-04-15T07:07:58.017Z,3.67
2023-04-15T07:10:26.936Z,4.35
2023-04-15T07:12:55.836Z,14.23
2023-04-15T07:15:24.649Z,14.40
2023-04-15T07:17:53.719Z,73.88
2023-04-15T07:20:22.814Z,1.88
2023-04-15T07:22:51.544Z,3.78
2023-04-15T07:25:20.558Z,1.73
2023-04-15T07:27:49.383Z,6.55
2023-04-15T07:30:18.277Z,2.50
2023-04-15T07:32:47.619Z,3.63
2023-04-15T07:35:16.491Z,3.67
2023-04-15T07:37:45.472Z,3.05
2023-04-15T07:40:15.432Z,3.22
2023-04-15T07:42:44.266Z,4.35
2023-04-15T07:45:16.658Z,3.58
2023-04-15T07:47:47.636Z,3.63
2023-04-15T07:50:17.071Z,4.38
2023-04-15T07:52:45.945Z,2.08
2023-04-15T07:55:14.688Z,2.78
2023-04-15T07:57:43.536Z,2.50
2023-04-15T08:00:13.000Z,3.30
2023-04-15T08:02:43.703Z,4.25
2023-04-15T08:05:12.425Z,3.38
2023-04-15T08:07:41.797Z,5.18
2023-04-15T08:10:11.056Z,15.40
2023-04-15T08:12:40.087Z,6.53
2023-04-15T08:15:09.831Z,4.78
2023-04-15T08:17:38.462Z,3.83
2023-04-15T08:20:07.603Z,4.32
2023-04-15T08:22:36.491Z,2.05
2023-04-15T08:25:05.426Z,5.55
2023-04-15T08:27:34.226Z,5.50
2023-04-15T08:30:05.108Z,9.63
2023-04-15T08:32:34.071Z,5.22
2023-04-15T08:35:02.935Z,4.15
2023-04-15T08:37:31.828Z,4.13
2023-04-15T08:40:00.604Z,2.78
2023-04-15T08:42:33.473Z,12.95
2023-04-15T08:45:05.148Z,2.80
2023-04-15T08:47:39.633Z,3.83
2023-04-15T08:50:14.426Z,4.43
2023-04-15T08:55:14.570Z,1.98
2023-04-15T08:57:43.441Z,4.25
2023-04-15T09:00:13.332Z,2.55
2023-04-15T09:02:42.922Z,2.60
2023-04-15T09:05:11.953Z,2.40
2023-04-15T09:07:43.779Z,2.22
2023-04-15T09:10:12.903Z,2.00
2023-04-15T09:12:41.796Z,2.72
2023-04-15T09:15:13.896Z,6.10
2023-04-15T09:17:46.973Z,3.08
2023-04-15T09:20:21.913Z,3.88
2023-04-15T09:22:51.838Z,2.92
2023-04-15T09:25:32.176Z,3.58
2023-04-15T09:28:04.929Z,5.97
2023-04-15T09:30:33.708Z,2.78
2023-04-15T09:33:05.567Z,3.55
2023-04-15T09:35:34.817Z,5.03
2023-04-15T09:38:08.985Z,3.45
2023-04-15T09:40:40.278Z,3.78
2023-04-15T09:43:13.772Z,4.07
2023-04-15T09:45:50.256Z,2.08
2023-04-15T09:48:27.951Z,2.63
2023-04-15T09:51:01.050Z,4.63
2023-04-15T09:53:31.849Z,3.17
2023-04-15T09:56:04.114Z,2.40
2023-04-15T09:58:35.590Z,5.60
2023-04-15T10:01:06.924Z,3.85
2023-04-15T10:03:39.444Z,3.58
2023-04-15T10:06:09.024Z,2.97
2023-04-15T10:08:40.373Z,3.03
2023-04-15T10:11:09.426Z,2.35
2023-04-15T10:13:39.756Z,2.38
2023-04-15T10:16:11.654Z,2.80
2023-04-15T10:18:45.743Z,3.78
2023-04-15T10:21:19.281Z,3.92
2023-04-15T10:23:48.664Z,6.20
2023-04-15T10:26:18.517Z,5.07
2023-04-15T10:28:50.287Z,2.83
2023-04-15T10:31:20.865Z,7.15
2023-04-15T10:33:50.870Z,6.25
2023-04-15T10:36:21.473Z,2.15
2023-04-15T10:38:50.196Z,4.43
2023-04-15T10:41:24.721Z,2.00
2023-04-15T10:44:01.099Z,3.85
2023-04-15T10:46:41.596Z,4.28
2023-04-15T10:49:17.301Z,3.55
2023-04-15T10:51:51.999Z,5.88
2023-04-15T10:54:26.528Z,2.10
2023-04-15T10:57:07.342Z,3.05
2023-04-15T11:00:00.256Z,2.67
2023-04-15T11:02:54.007Z,1.95
2023-04-15T11:05:43.974Z,3.47
2023-04-15T11:08:13.997Z,8.00
2023-04-15T11:10:42.771Z,5.50
2023-04-15T11:13:11.829Z,2.90
2023-04-15T11:15:42.458Z,3.28
2023-04-15T11:18:42.256Z,5.22
2023-04-15T11:21:11.094Z,10.73
2023-04-15T11:23:44.849Z,3.67
2023-04-15T11:26:13.907Z,3.60
2023-04-15T11:28:46.599Z,5.10
2023-04-15T11:31:17.153Z,2.40
2023-04-15T11:34:00.897Z,5.95
2023-04-15T11:36:32.566Z,4.65
2023-04-15T11:39:01.805Z,5.30
2023-04-15T11:41:30.739Z,7.40
2023-04-15T11:43:59.570Z,44.45
2023-04-15T11:46:32.799Z,51.13
2023-04-15T11:49:01.682Z,10.07
2023-04-15T11:51:34.757Z,6.07
2023-04-15T11:54:04.533Z,18.13
2023-04-15T11:56:33.574Z,19.83
2023-04-15T11:59:02.812Z,4.65
2023-04-15T12:01:47.306Z,4.50
2023-04-15T12:04:25.492Z,6.75
2023-04-15T12:06:54.912Z,3.22
2023-04-15T12:09:23.628Z,6.72
2023-04-15T12:11:56.189Z,2.95
2023-04-15T12:14:32.295Z,4.18
2023-04-15T12:17:05.656Z,6.32
2023-04-15T12:19:39.358Z,10.68
2023-04-15T12:22:11.590Z,10.40
2023-04-15T12:24:41.170Z,17.73
2023-04-15T12:27:13.191Z,13.57
2023-04-15T12:29:44.061Z,11.73
2023-04-15T12:32:17.154Z,4.40
2023-04-15T12:34:51.681Z,5.45
2023-04-15T12:37:20.474Z,10.38
2023-04-15T12:39:51.305Z,19.52
2023-04-15T12:42:20.216Z,19.67
2023-04-15T12:44:48.896Z,6.20
2023-04-15T12:47:17.867Z,8.95
2023-04-15T12:49:46.601Z,14.25
2023-04-15T12:52:15.898Z,9.55
2023-04-15T12:54:47.275Z,6.03
2023-04-15T12:57:16.007Z,7.03
2023-04-15T12:59:44.962Z,9.15
2023-04-15T13:02:14.517Z,15.27
2023-04-15T13:04:43.599Z,11.25
2023-04-15T13:07:14.726Z,18.63
2023-04-15T13:09:43.762Z,14.63
2023-04-15T13:12:14.442Z,10.32
2023-04-15T13:14:43.464Z,7.50
2023-04-15T13:17:12.368Z,9.15
2023-04-15T13:19:41.323Z,3.95
2023-04-15T13:22:10.220Z,6.35
2023-04-15T13:24:40.161Z,7.50
2023-04-15T13:27:09.179Z,9.23
2023-04-15T13:29:38.574Z,10.90
2023-04-15T13:32:07.866Z,13.57
2023-04-15T13:34:36.819Z,11.57
2023-04-15T13:37:09.891Z,13.60
2023-04-15T13:39:38.845Z,24.42
2023-04-15T13:42:10.189Z,30.30
2023-04-15T13:44:39.381Z,40.70
2023-04-15T13:47:08.473Z,24.92
2023-04-15T13:49:37.139Z,31.17
2023-04-15T13:52:05.889Z,27.55
2023-04-15T13:54:37.044Z,20.27
2023-04-15T13:57:07.856Z,25.85
2023-04-15T13:59:37.101Z,28.48
2023-04-15T14:02:06.094Z,27.98
2023-04-15T14:04:34.927Z,35.80
2023-04-15T14:07:06.701Z,46.33
2023-04-15T14:09:36.503Z,44.90
2023-04-15T14:12:05.781Z,84.72
2023-04-15T14:14:34.396Z,45.17
2023-04-15T14:17:05.046Z,18.08
2023-04-15T14:19:37.004Z,21.35
2023-04-15T14:22:05.728Z,26.10
2023-04-15T14:24:34.638Z,21.00
2023-04-15T14:27:04.165Z,22.90
2023-04-15T14:29:33.106Z,21.38
2023-04-15T14:32:04.503Z,32.33
2023-04-15T14:34:41.721Z,28.08
2023-04-15T14:37:10.731Z,40.33
2023-04-15T14:39:39.693Z,57.15
2023-04-15T14:42:08.381Z,49.40
2023-04-15T14:44:37.191Z,40.95
2023-04-15T14:47:06.645Z,36.05
2023-04-15T14:49:35.285Z,39.00
2023-04-15T14:52:04.155Z,38.13
2023-04-15T14:54:33.035Z,40.97
2023-04-15T14:57:02.887Z,40.47
2023-04-15T14:59:31.873Z,65.03
2023-04-15T15:02:00.960Z,69.00
2023-04-15T15:04:30.758Z,80.50
2023-04-15T15:07:02.160Z,90.80
2023-04-15T15:09:30.869Z,91.78
2023-04-15T15:11:59.672Z,100.63
2023-04-15T15:14:28.597Z,117.85
2023-04-15T15:16:59.754Z,111.43
2023-04-15T15:19:28.453Z,118.03
2023-04-15T15:21:57.370Z,63.08
2023-04-15T15:24:26.228Z,57.17
2023-04-15T15:26:55.188Z,56.55
2023-04-15T15:29:24.551Z,51.38
2023-04-15T15:31:53.347Z,55.20
2023-04-15T15:34:22.118Z,40.17
2023-04-15T15:36:51.044Z,39.20
2023-04-15T15:39:19.913Z,31.60
2023-04-15T15:41:48.590Z,40.08
2023-04-15T15:44:17.632Z,44.58
2023-04-15T15:46:46.334Z,47.22
2023-04-15T15:49:15.267Z,49.30
2023-04-15T15:51:44.473Z,47.78
2023-04-15T15:54:13.282Z,57.42
2023-04-15T15:56:42.843Z,44.53
2023-04-15T15:59:11.914Z,56.15
2023-04-15T16:01:40.938Z,66.70
2023-04-15T16:04:09.864Z,52.30
2023-04-15T16:06:38.946Z,33.80
2023-04-15T16:09:07.755Z,49.45
2023-04-15T16:11:36.803Z,47.13
2023-04-15T16:14:05.951Z,42.67
2023-04-15T16:16:35.879Z,34.28
2023-04-15T16:19:05.128Z,40.28
2023-04-15T16:21:35.160Z,48.20
2023-04-15T16:24:04.364Z,43.90
2023-04-15T16:26:33.419Z,58.25
2023-04-15T16:29:02.851Z,54.00
2023-04-15T16:31:32.004Z,91.05
2023-04-15T16:34:00.784Z,261.17
2023-04-15T16:36:30.147Z,50.47
2023-04-15T16:38:59.147Z,109.38
2023-04-15T16:41:28.752Z,46.85
2023-04-15T16:43:59.561Z,73.53
2023-04-15T16:46:30.474Z,47.80
2023-04-15T16:48:59.282Z,81.30
2023-04-15T16:51:31.256Z,73.20
2023-04-15T16:54:00.139Z,108.85
2023-04-15T16:56:29.984Z,146.98
2023-04-15T16:58:59.138Z,134.50
2023-04-15T17:01:27.982Z,127.25
2023-04-15T17:03:57.372Z,174.73
2023-04-15T17:06:27.479Z,175.55
2023-04-15T17:08:56.327Z,139.57
2023-04-15T17:11:25.241Z,119.85
2023-04-15T17:13:54.331Z,295.50
2023-04-15T17:16:23.515Z,128.00
2023-04-15T17:18:52.688Z,83.47
2023-04-15T17:21:22.379Z,85.80
2023-04-15T17:23:52.187Z,78.18
2023-04-15T17:26:21.462Z,95.15
2023-04-15T17:28:50.642Z,65.35
2023-04-15T17:31:19.380Z,72.82
2023-04-15T17:34:03.588Z,120.63
2023-04-15T17:36:37.320Z,60.30
2023-04-15T17:39:06.774Z,69.00
2023-04-15T17:41:35.872Z,55.20
2023-04-15T17:44:04.953Z,57.83
2023-04-15T17:46:34.217Z,52.85
2023-04-15T17:49:04.258Z,69.85
2023-04-15T17:51:33.799Z,50.20
2023-04-15T17:54:09.160Z,55.20
2023-04-15T17:56:38.339Z,46.90
2023-04-15T17:59:10.666Z,48.97
2023-04-15T18:01:39.342Z,82.88
2023-04-15T18:04:08.944Z,60.28
2023-04-15T18:06:38.482Z,55.72
2023-04-15T18:09:08.011Z,55.60
2023-04-15T18:11:37.150Z,56.47
2023-04-15T18:14:07.725Z,53.22
2023-04-15T18:16:36.809Z,66.93
2023-04-15T18:19:05.374Z,67.70
2023-04-15T18:21:34.087Z,60.85
2023-04-15T18:24:03.633Z,54.95
2023-04-15T18:26:32.791Z,64.45
2023-04-15T18:29:01.774Z,73.10
2023-04-15T18:31:30.570Z,90.20
2023-04-15T18:33:59.492Z,104.45
2023-04-15T18:36:28.532Z,75.88
2023-04-15T18:38:57.313Z,259.00
2023-04-15T18:41:26.664Z,82.22
2023-04-15T18:43:56.967Z,107.30
2023-04-15T18:46:26.063Z,97.75
2023-04-15T18:48:54.828Z,113.28
2023-04-15T18:51:23.849Z,136.15
2023-04-15T18:53:52.624Z,168.75
2023-04-15T18:56:21.275Z,138.88
2023-04-15T18:59:09.302Z,112.78
2023-04-15T19:01:38.643Z,155.93
2023-04-15T19:04:07.470Z,111.65
2023-04-15T19:06:36.312Z,108.63
2023-04-15T19:09:05.418Z,112.90
2023-04-15T19:11:34.576Z,107.80
2023-04-15T19:14:03.391Z,106.55
2023-04-15T19:16:32.187Z,111.65
2023-04-15T19:19:00.913Z,103.32
2023-04-15T19:21:31.352Z,109.00
2023-04-15T19:24:01.322Z,92.53
2023-04-15T19:26:30.251Z,87.47
2023-04-15T19:28:59.750Z,93.22
2023-04-15T19:31:28.524Z,91.47
2023-04-15T19:33:57.575Z,95.70
2023-04-15T19:36:28.939Z,81.10
2023-04-15T19:38:57.756Z,86.65
2023-04-15T19:41:27.165Z,108.70
2023-04-15T19:43:56.343Z,87.18
2023-04-15T19:46:25.622Z,83.72
2023-04-15T19:48:55.411Z,85.05
2023-04-15T19:51:24.136Z,75.45
2023-04-15T19:53:54.713Z,81.60
2023-04-15T19:56:24.699Z,72.45
2023-04-15T19:58:56.895Z,81.55
2023-04-15T20:01:25.817Z,87.88
2023-04-15T20:03:55.646Z,71.57
2023-04-15T20:06:24.799Z,72.13
2023-04-15T20:08:53.406Z,88.95
2023-04-15T20:11:22.973Z,74.53
2023-04-15T20:13:51.718Z,68.85
2023-04-15T20:16:20.614Z,64.82
2023-04-15T20:18:49.514Z,51.90
2023-04-15T20:21:18.392Z,50.20
2023-04-15T20:23:47.233Z,49.88
2023-04-15T20:26:15.969Z,42.92
2023-04-15T20:28:44.620Z,43.47
2023-04-15T20:31:13.572Z,32.42
2023-04-15T20:33:42.452Z,44.92
2023-04-15T20:36:11.269Z,28.42
2023-04-15T20:38:40.189Z,22.67
2023-04-15T20:41:09.038Z,26.10
2023-04-15T20:43:37.951Z,19.55
2023-04-15T20:46:13.921Z,16.50
2023-04-15T20:48:49.652Z,22.60
2023-04-15T20:51:18.453Z,19.15
2023-04-15T20:53:47.359Z,17.73
2023-04-15T20:56:16.210Z,14.77
2023-04-15T20:58:44.970Z,17.17
2023-04-15T21:01:14.451Z,15.25
2023-04-15T21:03:43.315Z,17.50
2023-04-15T21:06:12.303Z,19.70
2023-04-15T21:08:41.074Z,17.42
2023-04-15T21:11:10.073Z,22.92
2023-04-15T21:13:38.935Z,17.13
2023-04-15T21:16:07.759Z,21.17
2023-04-15T21:18:36.654Z,26.15
2023-04-15T21:21:06.291Z,22.63
2023-04-15T21:23:36.800Z,20.90
2023-04-15T21:26:05.433Z,29.90
2023-04-15T21:28:34.275Z,27.17
2023-04-15T21:31:02.852Z,27.85
2023-04-15T21:33:31.574Z,41.05
2023-04-15T21:36:00.393Z,29.45
2023-04-15T21:38:28.995Z,30.55
2023-04-15T21:40:58.374Z,30.35
2023-04-15T21:43:27.417Z,32.60
2023-04-15T21:46:22.952Z,33.40
2023-04-15T21:48:45.335Z,27.92
2023-04-15T21:51:14.300Z,29.20
2023-04-15T21:53:43.077Z,30.30
2023-04-15T21:56:11.925Z,31.05
2023-04-15T21:58:40.815Z,27.83
2023-04-15T22:01:09.645Z,27.30
2023-04-15T22:03:38.580Z,36.42
2023-04-15T22:06:08.094Z,27.38
2023-04-15T22:08:48.329Z,32.22
2023-04-15T22:11:30.396Z,27.73
2023-04-15T22:14:00.412Z,19.92
2023-04-15T22:16:29.554Z,20.35
2023-04-15T22:18:58.399Z,26.80
2023-04-15T22:21:27.637Z,18.48
2023-04-15T22:24:36.706Z,33.67
2023-04-15T22:26:45.375Z,25.38
2023-04-15T22:29:14.271Z,24.58
2023-04-15T22:31:43.170Z,16.02
2023-04-15T22:34:11.913Z,22.33
2023-04-15T22:36:40.629Z,17.33
2023-04-15T22:39:09.410Z,20.55
2023-04-15T22:41:40.709Z,23.77
2023-04-15T22:44:09.510Z,23.35
2023-04-15T22:46:39.247Z,13.93
2023-04-15T22:49:11.222Z,18.10
2023-04-15T22:51:40.129Z,15.88
2023-04-15T22:54:08.787Z,14.80
2023-04-15T22:56:37.588Z,12.88
2023-04-15T22:59:06.448Z,12.45
2023-04-15T23:01:35.283Z,14.25
2023-04-15T23:04:05.853Z,16.38
2023-04-15T23:06:38.709Z,15.52
2023-04-15T23:09:07.783Z,13.93
2023-04-15T23:11:36.713Z,15.48
2023-04-15T23:14:05.469Z,12.98
2023-04-15T23:16:34.221Z,11.82
2023-04-15T23:19:03.091Z,12.93
2023-04-15T23:21:31.994Z,11.57
2023-04-15T23:24:00.673Z,10.52
2023-04-15T23:26:29.497Z,8.85
2023-04-15T23:28:58.632Z,13.23
2023-04-15T23:31:27.297Z,11.30
2023-04-15T23:33:56.008Z,11.00
2023-04-15T23:36:24.795Z,11.60
2023-04-15T23:38:53.697Z,10.18
2023-04-15T23:41:22.647Z,13.48
2023-04-15T23:43:51.350Z,13.13
2023-04-15T23:46:20.316Z,12.15
2023-04-15T23:48:49.756Z,12.20
2023-04-15T23:51:18.550Z,11.77
2023-04-15T23:53:47.626Z,16.40
2023-04-15T23:56:16.914Z,17.42
2023-04-15T23:58:46.511Z,17.58
